createdAt,value
2022-12-26T00:02:12.456Z,11.90
2022-12-26T00:04:58.118Z,8.45
2022-12-26T00:07:43.858Z,7.75
2022-12-26T00:10:29.710Z,9.60
2022-12-26T00:13:39.913Z,9.27
2022-12-26T00:16:21.673Z,7.47
2022-12-26T00:19:07.397Z,7.93
2022-12-26T00:21:52.822Z,7.45
2022-12-26T00:24:38.167Z,6.40
2022-12-26T00:27:23.537Z,7.38
2022-12-26T00:30:09.317Z,6.72
2022-12-26T00:32:55.216Z,6.57
2022-12-26T00:35:40.766Z,7.55
2022-12-26T00:38:26.826Z,8.07
2022-12-26T00:41:13.880Z,8.10
2022-12-26T00:43:59.359Z,8.10
2022-12-26T00:46:44.721Z,7.90
2022-12-26T00:49:30.175Z,8.73
2022-12-26T00:52:35.571Z,8.05
2022-12-26T00:55:20.992Z,10.18
2022-12-26T00:58:06.429Z,10.40
2022-12-26T01:00:52.529Z,10.00
2022-12-26T01:03:37.971Z,9.95
2022-12-26T01:06:23.466Z,12.13
2022-12-26T01:09:12.055Z,12.10
2022-12-26T01:11:57.467Z,12.13
2022-12-26T01:14:42.779Z,11.40
2022-12-26T01:17:29.768Z,10.85
2022-12-26T01:20:15.195Z,8.35
2022-12-26T01:23:00.515Z,6.78
2022-12-26T01:26:18.384Z,7.40
2022-12-26T01:28:52.845Z,7.32
2022-12-26T01:31:38.483Z,6.63
2022-12-26T01:34:24.346Z,6.82
2022-12-26T01:37:13.159Z,8.00
2022-12-26T01:39:58.877Z,7.07
2022-12-26T01:42:44.326Z,6.93
2022-12-26T01:45:32.258Z,7.95
2022-12-26T01:48:26.091Z,6.70
2022-12-26T01:51:13.485Z,7.32
2022-12-26T01:54:40.391Z,7.05
2022-12-26T01:57:12.729Z,7.05
2022-12-26T02:00:01.356Z,6.93
2022-12-26T02:03:06.016Z,6.32
2022-12-26T02:05:51.597Z,7.03
2022-12-26T02:08:39.032Z,6.93
2022-12-26T02:11:39.131Z,7.00
2022-12-26T02:14:25.087Z,7.55
2022-12-26T02:17:11.142Z,7.18
2022-12-26T02:20:29.111Z,7.47
2022-12-26T02:23:38.999Z,7.22
2022-12-26T02:26:43.698Z,7.68
2022-12-26T02:29:32.325Z,8.00
2022-12-26T02:32:34.127Z,10.95
2022-12-26T02:35:25.556Z,12.07
2022-12-26T02:38:34.374Z,11.88
2022-12-26T02:41:32.985Z,11.05
2022-12-26T02:44:46.593Z,9.43
2022-12-26T02:47:38.939Z,9.13
2022-12-26T02:50:57.705Z,9.20
2022-12-26T02:54:25.024Z,9.30
2022-12-26T02:57:35.703Z,7.90
2022-12-26T03:00:40.606Z,7.82
2022-12-26T03:03:51.432Z,7.68
2022-12-26T03:06:58.461Z,7.18
2022-12-26T03:10:04.943Z,7.70
2022-12-26T03:13:10.898Z,8.90
2022-12-26T03:16:21.144Z,7.80
2022-12-26T03:19:10.083Z,7.18
2022-12-26T03:21:57.307Z,7.90
2022-12-26T03:25:02.950Z,7.78
2022-12-26T03:27:48.747Z,7.18
2022-12-26T03:30:49.877Z,6.47
2022-12-26T03:34:03.334Z,6.13
2022-12-26T03:37:00.870Z,6.07
2022-12-26T03:40:34.325Z,6.82
2022-12-26T03:44:17.373Z,5.07
2022-12-26T03:47:28.181Z,6.40
2022-12-26T03:50:53.584Z,6.70
2022-12-26T03:54:12.239Z,5.95
2022-12-26T03:57:24.139Z,6.43
2022-12-26T04:00:32.677Z,6.13
2022-12-26T04:03:39.814Z,5.72
2022-12-26T04:06:51.589Z,6.35
2022-12-26T04:10:12.835Z,6.47
2022-12-26T04:13:21.587Z,5.82
2022-12-26T04:16:38.275Z,6.55
2022-12-26T04:19:44.710Z,6.07
2022-12-26T04:23:12.782Z,6.05
2022-12-26T04:26:25.122Z,5.50
2022-12-26T04:29:29.088Z,5.90
2022-12-26T04:32:51.985Z,5.70
2022-12-26T04:39:20.293Z,6.60
2022-12-26T04:42:25.834Z,6.53
2022-12-26T04:45:13.261Z,6.13
2022-12-26T04:48:17.291Z,6.80
2022-12-26T04:51:02.799Z,5.93
2022-12-26T04:53:48.272Z,6.78
2022-12-26T04:56:34.252Z,7.45
2022-12-26T04:59:20.438Z,8.25
2022-12-26T05:02:24.888Z,10.45
2022-12-26T05:05:28.767Z,11.20
2022-12-26T05:08:45.942Z,13.27
2022-12-26T05:11:33.847Z,14.05
2022-12-26T05:14:19.812Z,12.50
2022-12-26T05:17:25.412Z,18.17
2022-12-26T05:20:31.360Z,24.33
2022-12-26T05:23:43.031Z,16.77
2022-12-26T05:26:47.108Z,15.68
2022-12-26T05:29:32.646Z,14.70
2022-12-26T05:32:36.737Z,11.18
2022-12-26T05:35:22.190Z,11.68
2022-12-26T05:38:10.788Z,9.48
2022-12-26T05:40:56.535Z,8.23
2022-12-26T05:43:41.720Z,7.68
2022-12-26T05:46:27.187Z,7.40
2022-12-26T05:49:13.124Z,8.77
2022-12-26T05:51:58.505Z,6.60
2022-12-26T05:54:44.148Z,7.03
2022-12-26T05:57:29.426Z,6.18
2022-12-26T06:00:15.388Z,5.43
2022-12-26T06:03:02.296Z,5.90
2022-12-26T06:05:47.867Z,5.75
2022-12-26T06:08:33.739Z,5.32
2022-12-26T06:11:20.836Z,4.50
2022-12-26T06:14:06.354Z,5.80
2022-12-26T06:16:51.778Z,6.18
2022-12-26T06:19:41.620Z,5.63
2022-12-26T06:22:32.195Z,6.55
2022-12-26T06:25:18.602Z,7.30
2022-12-26T06:28:04.487Z,7.18
2022-12-26T06:30:51.588Z,7.65
2022-12-26T06:33:37.812Z,5.97
2022-12-26T06:36:25.509Z,5.20
2022-12-26T06:39:11.356Z,6.78
2022-12-26T06:41:57.014Z,7.10
2022-12-26T06:44:42.512Z,6.70
2022-12-26T06:47:29.172Z,6.55
2022-12-26T06:50:14.697Z,7.07
2022-12-26T06:53:00.287Z,14.77
2022-12-26T06:55:45.696Z,8.75
2022-12-26T06:58:32.803Z,5.93
2022-12-26T07:01:21.454Z,6.82
2022-12-26T07:04:07.348Z,6.72
2022-12-26T07:06:52.814Z,5.40
2022-12-26T07:09:38.027Z,6.15
2022-12-26T07:12:23.599Z,6.90
2022-12-26T07:15:10.205Z,11.30
2022-12-26T07:17:55.687Z,7.03
2022-12-26T07:20:41.402Z,9.35
2022-12-26T07:23:26.694Z,14.57
2022-12-26T07:26:12.267Z,8.18
2022-12-26T07:28:58.765Z,9.48
2022-12-26T07:31:44.396Z,9.43
2022-12-26T07:34:31.865Z,7.18
2022-12-26T07:37:18.390Z,7.00
2022-12-26T07:40:04.373Z,5.90
2022-12-26T07:42:53.370Z,6.00
2022-12-26T07:45:45.094Z,6.55
2022-12-26T07:48:31.512Z,7.60
2022-12-26T07:51:17.145Z,6.68
2022-12-26T07:54:08.889Z,7.82
2022-12-26T07:57:15.086Z,7.68
2022-12-26T08:00:04.913Z,6.72
2022-12-26T08:03:02.765Z,7.50
2022-12-26T08:05:53.017Z,7.68
2022-12-26T08:08:38.715Z,7.82
2022-12-26T08:11:25.153Z,8.60
2022-12-26T08:14:19.154Z,7.60
2022-12-26T08:17:04.576Z,8.10
2022-12-26T08:19:50.156Z,7.38
2022-12-26T08:22:35.595Z,6.40
2022-12-26T08:25:22.244Z,5.97
2022-12-26T08:28:08.001Z,7.93
2022-12-26T08:30:53.429Z,8.32
2022-12-26T08:33:38.900Z,8.30
2022-12-26T08:36:24.825Z,7.55
2022-12-26T08:39:10.234Z,6.40
2022-12-26T08:41:55.604Z,6.50
2022-12-26T08:44:40.955Z,5.70
2022-12-26T08:47:27.396Z,6.85
2022-12-26T08:50:13.281Z,7.30
2022-12-26T08:52:58.952Z,5.78
2022-12-26T08:55:44.466Z,5.50
2022-12-26T08:58:29.869Z,5.05
2022-12-26T09:01:18.236Z,6.50
2022-12-26T09:04:06.950Z,7.70
2022-12-26T09:06:52.528Z,6.40
2022-12-26T09:09:37.942Z,6.25
2022-12-26T09:12:23.469Z,6.40
2022-12-26T09:15:09.128Z,7.70
2022-12-26T09:17:55.143Z,6.60
2022-12-26T09:20:40.490Z,6.35
2022-12-26T09:23:25.822Z,5.65
2022-12-26T09:26:17.248Z,5.90
2022-12-26T09:29:03.375Z,6.50
2022-12-26T09:31:48.891Z,6.45
2022-12-26T09:34:35.663Z,7.32
2022-12-26T09:37:22.002Z,6.68
2022-12-26T09:40:22.277Z,6.38
2022-12-26T09:43:55.802Z,7.03
2022-12-26T09:47:04.130Z,5.88
2022-12-26T09:50:00.222Z,5.65
2022-12-26T09:53:12.968Z,5.38
2022-12-26T09:56:08.651Z,5.82
2022-12-26T09:59:12.197Z,6.38
2022-12-26T10:01:57.988Z,7.63
2022-12-26T10:04:44.003Z,8.05
2022-12-26T10:07:51.782Z,8.23
2022-12-26T10:10:57.568Z,8.68
2022-12-26T10:13:56.646Z,11.63
2022-12-26T10:16:53.167Z,8.52
2022-12-26T10:19:41.657Z,12.30
2022-12-26T10:23:03.710Z,9.32
2022-12-26T10:25:59.794Z,10.13
2022-12-26T10:29:02.827Z,8.63
2022-12-26T10:31:56.880Z,9.30
2022-12-26T10:34:46.466Z,8.93
2022-12-26T10:37:40.657Z,9.38
2022-12-26T10:40:35.669Z,9.18
2022-12-26T10:43:29.638Z,7.95
2022-12-26T10:46:24.143Z,10.75
2022-12-26T10:49:15.867Z,8.40
2022-12-26T10:52:04.298Z,8.48
2022-12-26T10:55:31.235Z,9.82
2022-12-26T10:58:29.423Z,7.70
2022-12-26T11:01:30.488Z,7.70
2022-12-26T11:04:44.459Z,12.60
2022-12-26T11:07:33.181Z,7.57
2022-12-26T11:10:22.630Z,7.82
2022-12-26T11:13:20.441Z,9.85
2022-12-26T11:16:07.949Z,19.30
2022-12-26T11:18:54.236Z,16.85
2022-12-26T11:21:39.946Z,10.05
2022-12-26T11:24:25.505Z,6.70
2022-12-26T11:27:20.394Z,7.22
2022-12-26T11:30:20.433Z,7.05
2022-12-26T11:33:14.940Z,8.95
2022-12-26T11:36:06.423Z,8.27
2022-12-26T11:38:59.804Z,7.60
2022-12-26T11:41:49.150Z,9.50
2022-12-26T11:44:40.949Z,7.60
2022-12-26T11:47:29.127Z,9.98
2022-12-26T11:50:21.368Z,7.10
2022-12-26T11:53:07.332Z,9.20
2022-12-26T11:56:05.155Z,7.70
2022-12-26T11:59:06.396Z,8.25
2022-12-26T12:02:11.919Z,7.95
2022-12-26T12:05:01.964Z,7.80
2022-12-26T12:07:52.821Z,9.55
2022-12-26T12:10:54.413Z,8.73
2022-12-26T12:13:58.687Z,9.65
2022-12-26T12:16:47.490Z,9.52
2022-12-26T12:19:46.298Z,8.93
2022-12-26T12:22:56.511Z,9.05
2022-12-26T12:25:53.491Z,9.77
2022-12-26T12:28:58.011Z,9.00
2022-12-26T12:32:01.909Z,9.15
2022-12-26T12:34:56.496Z,10.15
2022-12-26T12:38:03.408Z,10.15
2022-12-26T12:41:25.194Z,11.00
2022-12-26T12:44:22.119Z,9.43
2022-12-26T12:47:15.290Z,9.60
2022-12-26T12:50:42.794Z,9.27
2022-12-26T12:53:54.205Z,11.80
2022-12-26T12:56:44.525Z,15.02
2022-12-26T13:00:03.828Z,12.80
2022-12-26T13:02:55.927Z,10.63
2022-12-26T13:06:01.692Z,12.40
2022-12-26T13:09:02.320Z,11.90
2022-12-26T13:11:54.122Z,16.42
2022-12-26T13:14:48.074Z,18.93
2022-12-26T13:17:46.689Z,15.80
2022-12-26T13:20:48.000Z,11.82
2022-12-26T13:23:57.448Z,10.27
2022-12-26T13:26:59.023Z,12.52
2022-12-26T13:29:47.279Z,12.88
2022-12-26T13:32:33.693Z,13.30
2022-12-26T13:35:56.812Z,12.25
2022-12-26T13:39:13.043Z,11.07
2022-12-26T13:42:26.621Z,11.75
2022-12-26T13:45:37.721Z,11.77
2022-12-26T13:48:27.353Z,11.87
2022-12-26T13:51:49.239Z,11.82
2022-12-26T13:54:35.365Z,11.17
2022-12-26T13:57:30.185Z,11.80
2022-12-26T14:00:23.256Z,10.23
2022-12-26T14:03:20.473Z,9.98
2022-12-26T14:06:27.329Z,9.43
2022-12-26T14:09:31.726Z,9.35
2022-12-26T14:12:35.927Z,9.07
2022-12-26T14:15:44.532Z,9.00
2022-12-26T14:18:38.199Z,10.00
2022-12-26T14:21:53.741Z,9.25
2022-12-26T14:24:57.289Z,8.98
2022-12-26T14:28:17.249Z,9.73
2022-12-26T14:31:22.404Z,9.38
2022-12-26T14:34:45.551Z,11.50
2022-12-26T14:37:53.991Z,13.25
2022-12-26T14:40:59.570Z,11.15
2022-12-26T14:43:47.157Z,11.98
2022-12-26T14:46:38.593Z,11.80
2022-12-26T14:49:35.918Z,12.07
2022-12-26T14:52:24.481Z,11.70
2022-12-26T14:55:51.686Z,10.80
2022-12-26T14:58:41.763Z,11.55
2022-12-26T15:01:28.859Z,12.30
2022-12-26T15:04:46.946Z,12.20
2022-12-26T15:07:51.353Z,12.15
2022-12-26T15:10:52.747Z,13.15
2022-12-26T15:14:03.311Z,15.48
2022-12-26T15:16:57.511Z,17.52
2022-12-26T15:20:20.489Z,19.55
2022-12-26T15:23:41.512Z,21.05
2022-12-26T15:26:41.299Z,19.75
2022-12-26T15:29:48.454Z,17.65
2022-12-26T15:32:40.913Z,16.00
2022-12-26T15:35:34.785Z,14.10
2022-12-26T15:38:58.324Z,12.95
2022-12-26T15:42:21.559Z,12.38
2022-12-26T15:45:28.430Z,12.27
2022-12-26T15:48:33.567Z,11.02
2022-12-26T15:51:40.369Z,11.52
2022-12-26T15:55:03.360Z,13.13
2022-12-26T15:57:52.747Z,14.50
2022-12-26T16:00:51.160Z,15.30
2022-12-26T16:03:56.740Z,14.77
2022-12-26T16:07:08.108Z,17.35
2022-12-26T16:09:55.984Z,16.45
2022-12-26T16:12:44.315Z,17.95
2022-12-26T16:15:33.002Z,17.02
2022-12-26T16:18:25.944Z,19.52
2022-12-26T16:21:37.459Z,20.42
2022-12-26T16:24:22.951Z,21.35
2022-12-26T16:27:13.266Z,23.30
2022-12-26T16:30:11.215Z,25.60
2022-12-26T16:32:58.078Z,23.13
2022-12-26T16:35:44.735Z,17.70
2022-12-26T16:38:32.166Z,19.48
2022-12-26T16:41:31.607Z,17.23
2022-12-26T16:44:40.509Z,18.35
2022-12-26T16:47:26.351Z,16.05
2022-12-26T16:50:19.769Z,15.32
2022-12-26T16:53:15.579Z,22.50
2022-12-26T16:56:22.897Z,29.00
2022-12-26T16:59:18.864Z,22.02
2022-12-26T17:02:04.947Z,17.10
2022-12-26T17:04:58.444Z,18.13
2022-12-26T17:07:46.485Z,15.30
2022-12-26T17:10:37.483Z,14.32
2022-12-26T17:13:26.210Z,13.35
2022-12-26T17:16:12.028Z,14.05
2022-12-26T17:19:11.832Z,13.18
2022-12-26T17:22:15.779Z,12.18
2022-12-26T17:25:22.098Z,11.90
2022-12-26T17:28:07.776Z,12.35
2022-12-26T17:30:53.669Z,11.27
2022-12-26T17:33:47.567Z,11.10
2022-12-26T17:37:16.498Z,9.77
2022-12-26T17:39:40.223Z,12.10
2022-12-26T17:42:25.990Z,11.05
2022-12-26T17:45:23.797Z,10.52
2022-12-26T17:48:10.972Z,11.43
2022-12-26T17:51:00.273Z,12.20
2022-12-26T17:53:51.319Z,12.95
2022-12-26T17:56:36.801Z,13.05
2022-12-26T17:59:22.663Z,13.50
2022-12-26T18:02:10.716Z,13.00
2022-12-26T18:04:56.307Z,13.13
2022-12-26T18:07:43.501Z,11.95
2022-12-26T18:10:33.037Z,12.23
2022-12-26T18:13:18.743Z,11.50
2022-12-26T18:16:05.910Z,11.75
2022-12-26T18:18:51.459Z,11.07
2022-12-26T18:21:36.772Z,10.13
2022-12-26T18:24:22.238Z,10.57
2022-12-26T18:27:12.926Z,8.70
2022-12-26T18:29:59.848Z,9.57
2022-12-26T18:32:47.127Z,7.70
2022-12-26T18:35:32.829Z,8.48
2022-12-26T18:38:20.173Z,8.90
2022-12-26T18:41:05.697Z,10.75
2022-12-26T18:43:51.378Z,11.52
2022-12-26T18:46:37.148Z,11.55
2022-12-26T18:49:23.104Z,13.65
2022-12-26T18:52:09.089Z,11.27
2022-12-26T18:54:54.583Z,10.65
2022-12-26T18:57:40.611Z,10.60
2022-12-26T19:00:26.613Z,10.32
2022-12-26T19:03:12.475Z,9.75
2022-12-26T19:05:58.472Z,8.77
2022-12-26T19:08:45.313Z,9.32
2022-12-26T19:11:30.547Z,9.48
2022-12-26T19:14:20.473Z,9.88
2022-12-26T19:17:06.301Z,10.57
2022-12-26T19:19:51.740Z,7.50
2022-12-26T19:22:37.175Z,6.68
2022-12-26T19:25:24.624Z,6.20
2022-12-26T19:28:11.371Z,5.82
2022-12-26T19:30:57.395Z,5.20
2022-12-26T19:33:43.314Z,6.20
2022-12-26T19:36:28.735Z,5.22
2022-12-26T19:39:18.127Z,4.88
2022-12-26T19:42:06.716Z,5.13
2022-12-26T19:44:55.259Z,5.20
2022-12-26T19:47:40.890Z,5.32
2022-12-26T19:50:26.395Z,5.10
2022-12-26T19:53:11.937Z,5.13
2022-12-26T19:55:57.722Z,5.43
2022-12-26T19:58:45.300Z,5.28
2022-12-26T20:01:32.540Z,5.40
2022-12-26T20:04:18.082Z,5.15
2022-12-26T20:07:04.883Z,5.43
2022-12-26T20:09:50.322Z,5.13
2022-12-26T20:12:35.861Z,5.50
2022-12-26T20:15:23.981Z,4.45
2022-12-26T20:18:14.875Z,4.65
2022-12-26T20:21:01.070Z,4.63
2022-12-26T20:23:47.098Z,4.30
2022-12-26T20:26:33.041Z,4.63
2022-12-26T20:29:18.672Z,5.18
2022-12-26T20:32:04.212Z,5.65
2022-12-26T20:34:49.763Z,5.00
2022-12-26T20:37:35.387Z,4.60
2022-12-26T20:40:21.018Z,5.13
2022-12-26T20:43:06.314Z,5.13
2022-12-26T20:45:52.692Z,5.35
2022-12-26T20:48:38.361Z,4.97
2022-12-26T20:51:30.115Z,5.32
2022-12-26T20:54:18.802Z,5.43
2022-12-26T20:57:04.743Z,6.22
2022-12-26T20:59:50.847Z,6.75
2022-12-26T21:02:36.790Z,6.00
2022-12-26T21:05:22.207Z,5.70
2022-12-26T21:08:07.656Z,5.22
2022-12-26T21:10:52.981Z,5.30
2022-12-26T21:13:44.516Z,4.93
2022-12-26T21:16:40.974Z,5.00
2022-12-26T21:19:29.646Z,5.00
2022-12-26T21:22:15.947Z,6.00
2022-12-26T21:25:01.614Z,5.47
2022-12-26T21:27:49.712Z,5.65
2022-12-26T21:30:35.574Z,5.80
2022-12-26T21:33:20.934Z,5.50
2022-12-26T21:36:14.044Z,6.03
2022-12-26T21:39:00.978Z,6.25
2022-12-26T21:41:47.610Z,6.18
2022-12-26T21:44:33.757Z,5.80
2022-12-26T21:47:19.847Z,5.72
2022-12-26T21:50:07.697Z,6.30
2022-12-26T21:52:53.161Z,5.80
2022-12-26T21:55:38.746Z,6.50
2022-12-26T21:58:24.109Z,7.18
2022-12-26T22:01:17.673Z,6.50
2022-12-26T22:04:23.669Z,6.82
2022-12-26T22:07:09.093Z,6.45
2022-12-26T22:09:54.689Z,6.30
2022-12-26T22:12:58.526Z,6.18
2022-12-26T22:16:04.109Z,6.65
2022-12-26T22:18:49.754Z,6.00
2022-12-26T22:21:35.373Z,6.07
2022-12-26T22:24:22.629Z,5.72
2022-12-26T22:27:08.260Z,6.25
2022-12-26T22:29:53.605Z,6.07
2022-12-26T22:32:39.135Z,6.30
2022-12-26T22:35:24.542Z,6.38
2022-12-26T22:38:09.987Z,5.45
2022-12-26T22:40:58.775Z,6.18
2022-12-26T22:43:44.865Z,6.13
2022-12-26T22:46:30.740Z,5.88
2022-12-26T22:49:16.378Z,5.97
2022-12-26T22:52:01.985Z,6.32
2022-12-26T22:54:48.374Z,6.43
2022-12-26T22:57:33.938Z,6.63
2022-12-26T23:00:19.455Z,6.75
2022-12-26T23:03:04.873Z,6.10
2022-12-26T23:05:51.255Z,6.38
2022-12-26T23:08:36.828Z,6.38
2022-12-26T23:11:26.229Z,7.07
2022-12-26T23:14:15.685Z,7.22
2022-12-26T23:17:06.494Z,7.28
2022-12-26T23:20:11.405Z,7.32
2022-12-26T23:22:57.049Z,7.18
2022-12-26T23:25:42.705Z,7.03
2022-12-26T23:28:46.968Z,7.85
2022-12-26T23:31:32.481Z,7.15
2022-12-26T23:34:18.328Z,7.05
2022-12-26T23:37:04.037Z,7.38
2022-12-26T23:39:49.581Z,7.70
2022-12-26T23:42:35.411Z,7.13
2022-12-26T23:45:21.267Z,6.05
2022-12-26T23:48:06.687Z,6.07
2022-12-26T23:51:02.170Z,5.90
2022-12-26T23:53:47.627Z,5.85
2022-12-26T23:56:33.159Z,6.45
2022-12-26T23:59:19.221Z,5.90
